Westmark, Nebraska
Current Conditions -  °F | °C
As of 7:55 AM on Saturday 22 Nov 2014 (Local Time) from KHDE Reporting Station
Clear Clear  
Wind Chill: 25°   Ceiling: Unl
Heat Index: 25°   Visibility: 7mi
Dew Point: 23°   Wind: 3mph
Humidity: 94%   Direction: 210°SSW
Pressure: 29.82"   Gusts: NA
Location:  40.5759°N, 99.537°W
Report Text: KHDE 221355Z AUTO 21003KT 7SM CLR M04/M05 A2982 RMK AO2 LTG DSNT S T10411050
Loading
Personal Weather Stations






























Interactive Weather Map New forecast layout! Learn more

10-Day Weather Forecast

Advertisements
Track Severe Weather on mobile